createdAt,value
2019-05-23T00:00:41.716Z,99.97
2019-05-23T00:01:41.902Z,99.56
2019-05-23T00:02:42.119Z,99.99
2019-05-23T00:03:42.333Z,99.99
2019-05-23T00:04:42.525Z,99.99
2019-05-23T00:05:42.726Z,99.99
2019-05-23T00:06:42.906Z,99.99
2019-05-23T00:07:43.138Z,99.99
2019-05-23T00:08:43.328Z,99.99
2019-05-23T00:09:43.536Z,99.99
2019-05-23T00:10:43.771Z,99.99
2019-05-23T00:11:43.887Z,99.99
2019-05-23T00:12:44.014Z,99.99
2019-05-23T00:13:44.186Z,99.99
2019-05-23T00:14:44.350Z,99.99
2019-05-23T00:15:44.546Z,99.99
2019-05-23T00:16:44.729Z,99.65
2019-05-23T00:17:44.935Z,99.86
2019-05-23T00:18:45.112Z,99.99
2019-05-23T00:19:45.297Z,99.96
2019-05-23T00:20:45.495Z,99.99
2019-05-23T00:21:45.670Z,99.99
2019-05-23T00:22:45.900Z,99.99
2019-05-23T00:23:46.084Z,99.99
2019-05-23T00:24:46.268Z,99.99
2019-05-23T00:25:46.445Z,99.99
2019-05-23T00:26:46.635Z,99.99
2019-05-23T00:27:46.825Z,99.99
2019-05-23T00:28:47.034Z,99.99
2019-05-23T00:29:47.189Z,99.99
2019-05-23T00:30:47.373Z,99.99
2019-05-23T00:31:47.519Z,99.99
2019-05-23T00:32:47.728Z,99.99
2019-05-23T00:33:47.934Z,99.99
2019-05-23T00:34:48.110Z,99.99
2019-05-23T00:35:48.299Z,99.99
2019-05-23T00:36:48.503Z,99.99
2019-05-23T00:37:48.714Z,99.99
2019-05-23T00:38:48.922Z,99.99
2019-05-23T00:39:49.118Z,99.99
2019-05-23T00:40:49.307Z,99.99
2019-05-23T00:41:49.548Z,99.99
2019-05-23T00:42:49.748Z,99.99
2019-05-23T00:43:49.948Z,99.99
2019-05-23T00:44:50.160Z,99.99
2019-05-23T00:45:50.348Z,99.99
2019-05-23T00:46:50.617Z,99.99
2019-05-23T00:47:50.786Z,99.99
2019-05-23T00:48:50.999Z,99.99
2019-05-23T00:49:51.188Z,99.99
2019-05-23T00:50:51.355Z,99.99
2019-05-23T00:51:51.538Z,99.99
2019-05-23T00:52:51.709Z,99.99
2019-05-23T00:53:51.863Z,99.99
2019-05-23T00:54:52.036Z,99.99
2019-05-23T00:55:52.211Z,99.99
2019-05-23T00:56:52.388Z,99.99
2019-05-23T00:57:52.555Z,99.99
2019-05-23T00:58:52.707Z,99.99
2019-05-23T00:59:52.858Z,99.99
2019-05-23T01:00:53.051Z,99.99
2019-05-23T01:01:53.202Z,99.99
2019-05-23T01:02:53.380Z,99.99
2019-05-23T01:03:53.518Z,99.99
2019-05-23T01:04:53.685Z,99.99
2019-05-23T01:05:53.844Z,99.99
2019-05-23T01:06:53.990Z,99.99
2019-05-23T01:07:54.147Z,99.99
2019-05-23T01:08:54.321Z,99.99
2019-05-23T01:09:54.489Z,99.99
2019-05-23T01:10:54.677Z,99.99
2019-05-23T01:11:54.840Z,99.99
2019-05-23T01:12:55.015Z,99.99
2019-05-23T01:13:55.156Z,99.90
2019-05-23T01:14:55.302Z,99.99
2019-05-23T01:15:55.525Z,99.99
2019-05-23T01:16:55.673Z,99.99
2019-05-23T01:17:55.822Z,99.99
2019-05-23T01:18:55.989Z,99.99
2019-05-23T01:19:56.140Z,99.99
2019-05-23T01:20:56.337Z,99.99
2019-05-23T01:21:56.535Z,99.99
2019-05-23T01:22:56.694Z,99.99
2019-05-23T01:23:57.848Z,99.99
2019-05-23T01:24:57.094Z,99.99
2019-05-23T01:25:57.280Z,99.99
2019-05-23T01:26:57.464Z,99.99
2019-05-23T01:27:57.612Z,99.99
2019-05-23T01:28:57.785Z,99.99
2019-05-23T01:29:57.958Z,99.99
2019-05-23T01:30:58.164Z,99.99
2019-05-23T01:31:58.304Z,99.99
2019-05-23T01:32:58.471Z,99.99
2019-05-23T01:33:58.625Z,99.99
2019-05-23T01:34:58.780Z,99.99
2019-05-23T01:35:58.952Z,99.99
2019-05-23T01:36:59.120Z,99.99
2019-05-23T01:37:59.372Z,99.99
2019-05-23T01:38:59.524Z,99.99
2019-05-23T01:39:59.685Z,99.99
2019-05-23T01:40:59.845Z,99.99
2019-05-23T01:42:00.018Z,99.99
2019-05-23T01:43:00.190Z,99.99
2019-05-23T01:44:00.332Z,99.99
2019-05-23T01:45:00.468Z,99.99
2019-05-23T01:46:00.595Z,99.99
2019-05-23T01:47:00.749Z,99.99
2019-05-23T01:48:00.883Z,99.99
2019-05-23T01:49:01.043Z,99.99
2019-05-23T01:50:01.161Z,99.99
2019-05-23T01:51:01.401Z,99.99
2019-05-23T01:52:01.553Z,99.99
2019-05-23T01:53:01.693Z,99.99
2019-05-23T01:54:01.864Z,99.99
2019-05-23T01:55:02.000Z,99.99
2019-05-23T01:56:02.151Z,99.99
2019-05-23T01:57:02.357Z,99.99
2019-05-23T01:58:02.530Z,99.99
2019-05-23T01:59:02.686Z,99.99
2019-05-23T02:00:10.060Z,99.99
2019-05-23T02:01:04.961Z,99.99
2019-05-23T02:02:03.199Z,99.99
2019-05-23T02:03:03.342Z,99.99
2019-05-23T02:04:03.527Z,99.99
2019-05-23T02:05:03.676Z,99.99
2019-05-23T02:06:03.865Z,99.99
2019-05-23T02:07:04.029Z,99.99
2019-05-23T02:08:04.291Z,99.99
2019-05-23T02:09:04.469Z,99.99
2019-05-23T02:10:04.697Z,99.99
2019-05-23T02:11:04.788Z,99.99
2019-05-23T02:12:04.951Z,99.99
2019-05-23T02:13:05.134Z,99.99
2019-05-23T02:14:05.346Z,99.99
2019-05-23T02:15:05.521Z,99.99
2019-05-23T02:16:05.711Z,99.99
2019-05-23T02:17:05.873Z,99.99
2019-05-23T02:18:06.047Z,99.99
2019-05-23T02:19:06.244Z,99.99
2019-05-23T02:20:06.426Z,99.99
2019-05-23T02:21:06.612Z,99.99
2019-05-23T02:22:06.833Z,99.99
2019-05-23T02:23:06.986Z,99.99
2019-05-23T02:24:07.175Z,99.99
2019-05-23T02:25:07.429Z,99.99
2019-05-23T02:26:07.613Z,99.99
2019-05-23T02:27:07.812Z,99.99
2019-05-23T02:28:07.999Z,99.99
2019-05-23T02:29:08.214Z,99.99
2019-05-23T02:30:29.911Z,99.99
2019-05-23T02:31:09.573Z,99.99
2019-05-23T02:32:08.701Z,99.99
2019-05-23T02:33:08.890Z,99.99
2019-05-23T02:34:09.079Z,99.99
2019-05-23T02:35:09.281Z,99.99
2019-05-23T02:36:09.439Z,99.99
2019-05-23T02:37:09.625Z,99.99
2019-05-23T02:38:09.787Z,99.99
2019-05-23T02:39:09.953Z,99.99
2019-05-23T02:40:10.167Z,99.99
2019-05-23T02:41:10.335Z,99.99
2019-05-23T02:42:10.516Z,99.99
2019-05-23T02:43:10.666Z,99.99
2019-05-23T02:44:10.879Z,99.99
2019-05-23T02:45:11.042Z,99.99
2019-05-23T02:46:11.202Z,99.99
2019-05-23T02:47:11.382Z,99.99
2019-05-23T02:48:11.550Z,99.99
2019-05-23T02:49:11.728Z,99.99
2019-05-23T02:50:11.869Z,99.99
2019-05-23T02:51:12.021Z,99.99
2019-05-23T02:52:12.214Z,99.99
2019-05-23T02:53:12.409Z,99.99
2019-05-23T02:54:12.594Z,99.99
2019-05-23T02:55:12.772Z,99.99
2019-05-23T02:56:12.974Z,99.99
2019-05-23T02:57:13.151Z,99.99
2019-05-23T02:58:13.315Z,99.99
2019-05-23T02:59:13.484Z,99.99
2019-05-23T03:00:13.668Z,99.99
2019-05-23T03:01:13.866Z,99.99
2019-05-23T03:02:14.025Z,99.99
2019-05-23T03:03:14.178Z,99.99
2019-05-23T03:04:14.345Z,99.99
2019-05-23T03:05:14.505Z,99.99
2019-05-23T03:06:14.682Z,99.99
2019-05-23T03:07:14.835Z,99.99
2019-05-23T03:08:14.987Z,99.99
2019-05-23T03:09:15.193Z,99.99
2019-05-23T03:10:15.390Z,99.99
2019-05-23T03:11:15.549Z,99.99
2019-05-23T03:12:15.706Z,99.99
2019-05-23T03:13:15.890Z,99.99
2019-05-23T03:14:16.077Z,99.99
2019-05-23T03:15:16.252Z,99.99
2019-05-23T03:16:16.472Z,99.99
2019-05-23T03:17:16.688Z,99.99
2019-05-23T03:18:16.901Z,99.99
2019-05-23T03:19:17.090Z,99.99
2019-05-23T03:20:17.287Z,99.99
2019-05-23T03:21:17.492Z,99.99
2019-05-23T03:22:17.715Z,99.99
2019-05-23T03:23:17.889Z,99.99
2019-05-23T03:24:18.056Z,99.99
2019-05-23T03:25:18.219Z,99.99
2019-05-23T03:26:18.405Z,99.99
2019-05-23T03:27:18.587Z,99.99
2019-05-23T03:28:18.746Z,99.99
2019-05-23T03:29:18.895Z,99.99
2019-05-23T03:30:19.042Z,99.99
2019-05-23T03:31:30.056Z,99.99
2019-05-23T03:32:21.447Z,99.99
2019-05-23T03:33:19.594Z,99.99
2019-05-23T03:34:19.699Z,99.99
2019-05-23T03:35:19.901Z,99.99
2019-05-23T03:36:20.067Z,99.99
2019-05-23T03:37:20.217Z,99.99
2019-05-23T03:38:20.375Z,99.99
2019-05-23T03:39:20.509Z,99.99
2019-05-23T03:40:20.757Z,99.99
2019-05-23T03:41:20.874Z,99.99
2019-05-23T03:42:20.997Z,99.99
2019-05-23T03:43:21.173Z,99.99
2019-05-23T03:44:21.317Z,99.99
2019-05-23T03:45:21.430Z,99.99
2019-05-23T03:46:21.673Z,99.99
2019-05-23T03:47:21.919Z,99.99
2019-05-23T03:48:22.165Z,99.99
2019-05-23T03:49:22.346Z,99.99
2019-05-23T03:50:22.508Z,99.99
2019-05-23T03:51:22.646Z,99.99
2019-05-23T03:52:22.797Z,99.99
2019-05-23T03:53:22.966Z,99.99
2019-05-23T03:54:23.125Z,99.99
2019-05-23T03:55:23.253Z,99.99
2019-05-23T03:56:23.381Z,99.99
2019-05-23T03:57:25.840Z,99.99
2019-05-23T03:58:24.702Z,99.99
2019-05-23T03:59:23.964Z,99.99
2019-05-23T04:00:24.121Z,99.99
2019-05-23T04:01:24.287Z,99.99
2019-05-23T04:02:24.449Z,99.99
2019-05-23T04:03:24.641Z,99.99
2019-05-23T04:04:24.812Z,99.99
2019-05-23T04:05:24.985Z,99.99
2019-05-23T04:06:25.137Z,99.99
2019-05-23T04:07:25.282Z,99.99
2019-05-23T04:08:25.420Z,99.99
2019-05-23T04:09:25.597Z,99.99
2019-05-23T04:10:25.765Z,99.99
2019-05-23T04:11:25.897Z,99.99
2019-05-23T04:12:26.025Z,99.99
2019-05-23T04:13:26.159Z,99.99
2019-05-23T04:14:26.294Z,99.99
2019-05-23T04:15:26.435Z,99.99
2019-05-23T04:16:30.518Z,99.99
2019-05-23T04:17:27.742Z,99.99
2019-05-23T04:18:26.987Z,99.99
2019-05-23T04:19:27.123Z,99.99
2019-05-23T04:20:27.308Z,99.99
2019-05-23T04:21:27.444Z,99.99
2019-05-23T04:22:27.590Z,99.99
2019-05-23T04:23:27.720Z,99.99
2019-05-23T04:24:27.857Z,99.99
2019-05-23T04:25:28.019Z,99.99
2019-05-23T04:26:29.187Z,99.99
2019-05-23T04:27:28.333Z,99.99
2019-05-23T04:28:28.506Z,99.99
2019-05-23T04:29:28.657Z,99.99
2019-05-23T04:30:28.822Z,99.99
2019-05-23T04:31:29.021Z,99.99
2019-05-23T04:32:29.184Z,99.99
2019-05-23T04:33:29.329Z,99.99
2019-05-23T04:34:29.491Z,99.99
2019-05-23T04:35:29.631Z,99.99
2019-05-23T04:36:29.910Z,99.99
2019-05-23T04:37:29.939Z,99.99
2019-05-23T04:38:30.094Z,99.99
2019-05-23T04:39:30.240Z,99.99
2019-05-23T04:40:30.427Z,99.99
2019-05-23T04:41:30.609Z,99.99
2019-05-23T04:42:30.779Z,99.86
2019-05-23T04:43:30.965Z,99.99
2019-05-23T04:44:31.145Z,99.99
2019-05-23T04:45:31.314Z,99.86
2019-05-23T04:46:31.525Z,99.99
2019-05-23T04:47:31.699Z,99.99
2019-05-23T04:48:31.863Z,99.99
2019-05-23T04:49:32.039Z,99.99
2019-05-23T04:50:32.205Z,99.40
2019-05-23T04:51:32.417Z,99.99
2019-05-23T04:52:32.595Z,99.99
2019-05-23T04:53:32.798Z,99.71
2019-05-23T04:54:32.976Z,99.56
2019-05-23T04:55:33.157Z,99.46
2019-05-23T04:56:33.395Z,99.46
2019-05-23T04:57:33.443Z,99.82
2019-05-23T04:58:33.621Z,99.21
2019-05-23T04:59:33.812Z,99.10
2019-05-23T05:00:33.974Z,98.69
2019-05-23T05:01:34.182Z,99.41
2019-05-23T05:02:34.375Z,99.26
2019-05-23T05:03:34.541Z,99.31
2019-05-23T05:04:34.723Z,98.44
2019-05-23T05:05:34.890Z,98.65
2019-05-23T05:06:35.050Z,98.65
2019-05-23T05:07:35.212Z,98.39
2019-05-23T05:08:35.405Z,98.29
2019-05-23T05:09:42.543Z,97.27
2019-05-23T05:10:35.813Z,98.19
2019-05-23T05:11:35.995Z,98.08
2019-05-23T05:12:36.174Z,98.39
2019-05-23T05:13:36.357Z,97.99
2019-05-23T05:14:36.562Z,98.39
2019-05-23T05:15:36.719Z,98.39
2019-05-23T05:16:36.900Z,98.19
2019-05-23T05:17:37.117Z,97.78
2019-05-23T05:18:37.268Z,97.67
2019-05-23T05:19:37.459Z,98.24
2019-05-23T05:20:37.645Z,98.24
2019-05-23T05:21:37.780Z,98.28
2019-05-23T05:22:37.983Z,98.38
2019-05-23T05:23:38.231Z,98.49
2019-05-23T05:24:40.184Z,97.97
2019-05-23T05:25:39.537Z,99.31
2019-05-23T05:26:38.707Z,99.41
2019-05-23T05:27:38.874Z,98.69
2019-05-23T05:28:39.062Z,98.75
2019-05-23T05:29:39.240Z,99.16
2019-05-23T05:30:39.449Z,98.28
2019-05-23T05:31:40.626Z,98.38
2019-05-23T05:32:44.913Z,98.24
2019-05-23T05:33:41.935Z,97.66
2019-05-23T05:34:40.092Z,98.38
2019-05-23T05:35:40.256Z,98.54
2019-05-23T05:36:40.443Z,98.33
2019-05-23T05:37:40.618Z,97.52
2019-05-23T05:38:40.757Z,98.54
2019-05-23T05:39:41.021Z,98.65
2019-05-23T05:40:41.065Z,98.39
2019-05-23T05:41:41.196Z,98.50
2019-05-23T05:42:41.445Z,97.67
2019-05-23T05:43:41.615Z,97.63
2019-05-23T05:44:41.818Z,97.53
2019-05-23T05:45:42.008Z,98.04
2019-05-23T05:46:42.153Z,97.73
2019-05-23T05:47:42.312Z,96.77
2019-05-23T05:48:42.548Z,96.87
2019-05-23T05:49:42.679Z,96.56
2019-05-23T05:50:42.738Z,96.31
2019-05-23T05:51:42.992Z,96.87
2019-05-23T05:52:43.061Z,96.82
2019-05-23T05:53:43.256Z,96.62
2019-05-23T05:54:43.466Z,96.92
2019-05-23T05:55:43.658Z,96.41
2019-05-23T05:56:43.826Z,96.37
2019-05-23T05:57:44.006Z,96.88
2019-05-23T05:58:44.234Z,97.29
2019-05-23T05:59:44.422Z,96.88
2019-05-23T06:00:44.603Z,97.19
2019-05-23T06:01:44.769Z,96.78
2019-05-23T06:03:02.806Z,96.94
2019-05-23T06:03:47.123Z,96.67
2019-05-23T06:04:45.268Z,96.42
2019-05-23T06:05:45.468Z,96.94
2019-05-23T06:06:45.663Z,96.83
2019-05-23T06:07:45.949Z,96.22
2019-05-23T06:08:47.113Z,97.75
2019-05-23T06:09:46.304Z,97.50
2019-05-23T06:10:46.547Z,96.53
2019-05-23T06:11:46.773Z,95.05
2019-05-23T06:12:46.851Z,95.70
2019-05-23T06:13:47.074Z,95.25
2019-05-23T06:14:47.248Z,94.54
2019-05-23T06:15:47.461Z,95.05
2019-05-23T06:16:47.669Z,95.46
2019-05-23T06:17:47.888Z,95.21
2019-05-23T06:18:48.071Z,95.10
2019-05-23T06:19:48.278Z,95.37
2019-05-23T06:20:49.414Z,94.75
2019-05-23T06:21:48.602Z,94.24
2019-05-23T06:22:48.797Z,93.99
2019-05-23T06:23:49.000Z,95.32
2019-05-23T06:24:53.693Z,94.60
2019-05-23T06:25:51.397Z,94.46
2019-05-23T06:26:49.583Z,95.38
2019-05-23T06:27:49.682Z,94.56
2019-05-23T06:28:49.863Z,94.67
2019-05-23T06:29:50.102Z,94.77
2019-05-23T06:30:50.169Z,94.52
2019-05-23T06:31:50.416Z,94.73
2019-05-23T06:32:50.492Z,92.99
2019-05-23T06:33:50.692Z,93.60
2019-05-23T06:34:50.878Z,93.25
2019-05-23T06:35:51.097Z,93.05
2019-05-23T06:36:51.339Z,93.15
2019-05-23T06:37:51.577Z,93.05
2019-05-23T06:38:51.678Z,92.80
2019-05-23T06:39:51.885Z,92.39
2019-05-23T06:40:52.079Z,92.39
2019-05-23T06:41:52.269Z,92.96
2019-05-23T06:42:52.452Z,93.37
2019-05-23T06:43:52.621Z,92.91
2019-05-23T06:44:52.785Z,92.30
2019-05-23T06:45:52.986Z,92.30
2019-05-23T06:46:53.196Z,90.73
2019-05-23T06:47:53.355Z,90.94
2019-05-23T06:48:53.580Z,90.32
2019-05-23T06:49:53.738Z,91.35
2019-05-23T06:50:53.921Z,90.94
2019-05-23T06:51:54.178Z,90.18
2019-05-23T06:52:54.337Z,89.97
2019-05-23T06:53:54.472Z,90.69
2019-05-23T06:54:54.631Z,92.01
2019-05-23T06:55:54.787Z,91.30
2019-05-23T06:56:54.977Z,91.05
2019-05-23T06:57:55.199Z,89.94
2019-05-23T06:58:55.392Z,90.34
2019-05-23T06:59:55.554Z,90.55
2019-05-23T07:00:55.745Z,90.09
2019-05-23T07:01:55.963Z,89.28
2019-05-23T07:02:56.155Z,90.50
2019-05-23T07:03:56.399Z,90.70
2019-05-23T07:04:56.465Z,89.38
2019-05-23T07:05:56.644Z,89.07
2019-05-23T07:06:56.832Z,89.48
2019-05-23T07:07:57.085Z,89.89
2019-05-23T07:08:57.227Z,89.28
2019-05-23T07:09:57.339Z,90.66
2019-05-23T07:10:57.462Z,90.56
2019-05-23T07:11:57.625Z,89.34
2019-05-23T07:12:57.845Z,88.83
2019-05-23T07:13:57.958Z,89.34
2019-05-23T07:14:58.176Z,90.25
2019-05-23T07:15:58.411Z,90.16
2019-05-23T07:16:58.629Z,88.73
2019-05-23T07:17:58.828Z,89.34
2019-05-23T07:18:59.042Z,89.54
2019-05-23T07:19:59.257Z,88.93
2019-05-23T07:20:59.481Z,89.30
2019-05-23T07:21:59.704Z,88.08
2019-05-23T07:22:59.901Z,89.40
2019-05-23T07:24:00.092Z,88.79
2019-05-23T07:25:00.295Z,87.84
2019-05-23T07:26:00.509Z,86.92
2019-05-23T07:27:00.707Z,86.31
2019-05-23T07:28:00.916Z,86.21
2019-05-23T07:29:01.138Z,85.60
2019-05-23T07:30:01.407Z,86.21
2019-05-23T07:31:01.526Z,85.90
2019-05-23T07:32:01.725Z,84.95
2019-05-23T07:33:01.919Z,86.07
2019-05-23T07:34:02.822Z,86.57
2019-05-23T07:35:03.295Z,84.80
2019-05-23T07:36:02.480Z,85.11
2019-05-23T07:37:02.742Z,85.92
2019-05-23T07:38:02.887Z,84.16
2019-05-23T07:39:02.976Z,84.56
2019-05-23T07:40:03.190Z,82.84
2019-05-23T07:41:03.418Z,81.41
2019-05-23T07:42:03.682Z,82.29
2019-05-23T07:43:03.775Z,80.32
2019-05-23T07:44:03.996Z,79.11
2019-05-23T07:45:04.111Z,79.21
2019-05-23T07:46:04.323Z,78.97
2019-05-23T07:47:04.511Z,80.35
2019-05-23T07:48:04.714Z,77.82
2019-05-23T07:49:04.983Z,76.60
2019-05-23T07:50:05.108Z,78.33
2019-05-23T07:51:05.305Z,79.13
2019-05-23T07:52:05.403Z,78.22
2019-05-23T07:53:05.575Z,79.50
2019-05-23T07:54:05.821Z,78.89
2019-05-23T07:55:06.039Z,76.97
2019-05-23T07:56:06.312Z,77.95
2019-05-23T07:57:06.343Z,70.76
2019-05-23T07:58:06.530Z,72.17
2019-05-23T07:59:06.721Z,72.55
2019-05-23T08:00:06.886Z,73.25
2019-05-23T08:01:07.235Z,70.52
2019-05-23T08:02:07.314Z,72.11
2019-05-23T08:03:07.544Z,72.68
2019-05-23T08:04:20.394Z,71.13
2019-05-23T08:05:09.826Z,64.16
2019-05-23T08:06:08.012Z,68.33
2019-05-23T08:07:08.200Z,58.22
2019-05-23T08:08:08.421Z,58.32
2019-05-23T08:09:08.608Z,58.09
2019-05-23T08:10:08.773Z,58.94
2019-05-23T08:11:08.988Z,60.52
2019-05-23T08:12:09.195Z,58.71
2019-05-23T08:13:09.525Z,53.30
2019-05-23T08:14:12.023Z,51.97
2019-05-23T08:15:10.811Z,53.58
2019-05-23T08:16:09.965Z,53.27
2019-05-23T08:17:10.205Z,51.86
2019-05-23T08:18:10.395Z,53.67
2019-05-23T08:19:10.578Z,53.40
2019-05-23T08:20:10.771Z,55.29
2019-05-23T08:21:10.953Z,55.76
2019-05-23T08:22:11.130Z,53.88
2019-05-23T08:23:11.342Z,50.13
2019-05-23T08:24:11.521Z,55.54
2019-05-23T08:25:11.682Z,51.66
2019-05-23T08:26:11.874Z,58.07
2019-05-23T08:27:12.068Z,55.94
2019-05-23T08:28:12.304Z,55.91
2019-05-23T08:29:25.374Z,51.79
2019-05-23T08:30:14.758Z,55.00
2019-05-23T08:31:12.866Z,55.61
2019-05-23T08:32:13.079Z,57.19
2019-05-23T08:33:13.263Z,49.05
2019-05-23T08:34:13.422Z,49.15
2019-05-23T08:35:17.694Z,47.86
2019-05-23T08:36:14.718Z,51.56
2019-05-23T08:37:14.191Z,42.32
2019-05-23T08:38:14.052Z,44.51
2019-05-23T08:39:14.206Z,45.59
2019-05-23T08:40:14.443Z,46.49
2019-05-23T08:41:14.598Z,48.98
2019-05-23T08:42:14.720Z,47.00
2019-05-23T08:43:14.945Z,45.40
2019-05-23T08:44:15.090Z,44.82
2019-05-23T08:45:15.297Z,48.46
2019-05-23T08:46:15.479Z,50.42
2019-05-23T08:47:15.648Z,48.04
2019-05-23T08:48:15.856Z,45.06
2019-05-23T08:49:16.055Z,45.76
2019-05-23T08:50:16.166Z,46.48
2019-05-23T08:51:16.345Z,48.86
2019-05-23T08:52:16.519Z,45.81
2019-05-23T08:53:16.744Z,45.81
2019-05-23T08:54:16.933Z,44.09
2019-05-23T08:55:17.222Z,41.88
2019-05-23T08:56:19.522Z,44.55
2019-05-23T08:57:18.512Z,42.55
2019-05-23T08:58:17.660Z,45.37
2019-05-23T08:59:17.861Z,41.83
2019-05-23T09:00:18.044Z,42.54
2019-05-23T09:01:18.233Z,45.21
2019-05-23T09:02:18.404Z,45.39
2019-05-23T09:03:18.677Z,44.19
2019-05-23T09:04:18.778Z,41.50
2019-05-23T09:05:18.950Z,43.61
2019-05-23T09:06:19.205Z,44.79
2019-05-23T09:07:19.316Z,44.96
2019-05-23T09:08:19.388Z,41.36
2019-05-23T09:09:29.654Z,40.12
2019-05-23T09:10:21.756Z,44.13
2019-05-23T09:11:19.941Z,44.01
2019-05-23T09:12:20.105Z,43.95
2019-05-23T09:13:20.310Z,41.41
2019-05-23T09:14:20.490Z,42.07
2019-05-23T09:15:20.711Z,43.35
2019-05-23T09:16:20.894Z,42.87
2019-05-23T09:17:21.095Z,41.67
2019-05-23T09:18:21.321Z,42.79
2019-05-23T09:19:21.539Z,42.59
2019-05-23T09:20:21.742Z,48.65
2019-05-23T09:21:21.978Z,42.65
2019-05-23T09:22:22.094Z,42.53
2019-05-23T09:23:22.190Z,40.12
2019-05-23T09:24:22.548Z,40.70
2019-05-23T09:25:22.520Z,39.61
2019-05-23T09:26:22.726Z,39.78
2019-05-23T09:27:22.928Z,42.77
2019-05-23T09:28:23.156Z,39.14
2019-05-23T09:29:23.387Z,41.02
2019-05-23T09:30:23.623Z,44.48
2019-05-23T09:31:23.820Z,40.04
2019-05-23T09:32:24.020Z,40.72
2019-05-23T09:33:24.215Z,40.48
2019-05-23T09:34:24.421Z,40.80
2019-05-23T09:35:24.612Z,40.95
2019-05-23T09:36:24.802Z,42.57
2019-05-23T09:37:24.971Z,39.84
2019-05-23T09:38:25.177Z,42.69
2019-05-23T09:39:25.337Z,41.31
2019-05-23T09:40:25.527Z,39.34
2019-05-23T09:41:25.728Z,37.67
2019-05-23T09:42:25.879Z,42.15
2019-05-23T09:43:26.036Z,41.60
2019-05-23T09:44:26.200Z,44.96
2019-05-23T09:45:26.368Z,39.86
2019-05-23T09:46:26.570Z,41.50
2019-05-23T09:47:26.759Z,40.98
2019-05-23T09:48:26.903Z,41.66
2019-05-23T09:49:27.056Z,39.92
2019-05-23T09:50:27.226Z,41.08
2019-05-23T09:51:27.418Z,41.74
2019-05-23T09:52:27.644Z,39.31
2019-05-23T09:53:27.860Z,40.22
2019-05-23T09:54:28.030Z,37.57
2019-05-23T09:55:28.189Z,41.93
2019-05-23T09:56:28.382Z,40.04
2019-05-23T09:57:28.543Z,37.93
2019-05-23T09:58:28.708Z,41.08
2019-05-23T09:59:28.885Z,41.03
2019-05-23T10:00:29.077Z,39.40
2019-05-23T10:01:29.317Z,37.73
2019-05-23T10:02:29.398Z,40.92
2019-05-23T10:03:29.603Z,42.59
2019-05-23T10:04:29.786Z,39.07
2019-05-23T10:05:42.116Z,39.40
2019-05-23T10:06:32.113Z,41.53
2019-05-23T10:07:30.245Z,40.20
2019-05-23T10:08:30.436Z,43.54
2019-05-23T10:09:30.604Z,38.56
2019-05-23T10:10:30.812Z,41.39
2019-05-23T10:11:49.797Z,39.75
2019-05-23T10:12:31.086Z,38.54
2019-05-23T10:13:39.054Z,36.90
2019-05-23T10:14:33.370Z,38.67
2019-05-23T10:15:31.499Z,39.09
2019-05-23T10:16:31.681Z,39.67
2019-05-23T10:17:31.872Z,38.85
2019-05-23T10:18:32.090Z,39.45
2019-05-23T10:19:32.147Z,38.03
2019-05-23T10:20:32.309Z,39.62
2019-05-23T10:21:32.622Z,43.98
2019-05-23T10:22:32.729Z,39.27
2019-05-23T10:23:32.894Z,39.90
2019-05-23T10:24:33.069Z,41.00
2019-05-23T10:25:33.214Z,37.21
2019-05-23T10:26:33.374Z,37.23
2019-05-23T10:27:33.615Z,40.54
2019-05-23T10:28:33.786Z,37.51
2019-05-23T10:29:34.018Z,36.54
2019-05-23T10:30:34.197Z,38.46
2019-05-23T10:31:34.463Z,38.54
2019-05-23T10:32:34.561Z,38.37
2019-05-23T10:33:34.766Z,37.87
2019-05-23T10:34:34.966Z,44.02
2019-05-23T10:35:35.168Z,37.93
2019-05-23T10:36:35.401Z,39.94
2019-05-23T10:37:35.703Z,41.03
2019-05-23T10:38:35.806Z,39.54
2019-05-23T10:39:36.000Z,39.21
2019-05-23T10:40:36.185Z,39.29
2019-05-23T10:41:36.410Z,40.50
2019-05-23T10:42:36.527Z,40.50
2019-05-23T10:43:36.742Z,37.79
2019-05-23T10:44:36.950Z,39.39
2019-05-23T10:45:37.173Z,41.87
2019-05-23T10:46:37.262Z,40.84
2019-05-23T10:47:37.483Z,40.62
2019-05-23T10:48:37.713Z,35.26
2019-05-23T10:49:37.902Z,35.38
2019-05-23T10:50:44.874Z,36.98
2019-05-23T10:51:40.303Z,40.36
2019-05-23T10:52:38.620Z,40.28
2019-05-23T10:53:38.674Z,37.79
2019-05-23T10:54:38.873Z,36.19
2019-05-23T10:55:39.027Z,38.07
2019-05-23T10:56:39.213Z,38.53
2019-05-23T10:57:39.371Z,38.53
2019-05-23T10:58:39.569Z,37.92
2019-05-23T10:59:39.721Z,40.86
2019-05-23T11:00:39.883Z,38.20
2019-05-23T11:01:40.040Z,41.31
2019-05-23T11:02:40.188Z,38.46
2019-05-23T11:03:40.369Z,43.85
2019-05-23T11:04:40.579Z,41.42
2019-05-23T11:05:40.747Z,42.07
2019-05-23T11:06:40.905Z,38.26
2019-05-23T11:07:41.094Z,35.89
2019-05-23T11:08:41.303Z,39.35
2019-05-23T11:09:41.476Z,36.35
2019-05-23T11:10:41.647Z,38.35
2019-05-23T11:11:41.882Z,36.75
2019-05-23T11:12:41.963Z,40.38
2019-05-23T11:13:42.136Z,34.64
2019-05-23T11:14:42.319Z,37.84
2019-05-23T11:15:42.530Z,36.25
2019-05-23T11:16:42.709Z,38.71
2019-05-23T11:17:43.001Z,35.41
2019-05-23T11:18:43.113Z,38.09
2019-05-23T11:19:43.300Z,37.11
2019-05-23T11:20:43.519Z,35.82
2019-05-23T11:21:43.710Z,36.71
2019-05-23T11:22:43.924Z,35.19
2019-05-23T11:23:44.101Z,37.66
2019-05-23T11:24:44.311Z,39.03
2019-05-23T11:25:44.496Z,37.49
2019-05-23T11:26:44.663Z,41.09
2019-05-23T11:27:44.847Z,38.96
2019-05-23T11:28:45.044Z,39.64
2019-05-23T11:29:45.228Z,40.24
2019-05-23T11:30:45.404Z,34.83
2019-05-23T11:31:45.542Z,35.11
2019-05-23T11:32:45.731Z,34.80
2019-05-23T11:33:45.915Z,34.94
2019-05-23T11:34:46.074Z,36.02
2019-05-23T11:35:47.292Z,37.03
2019-05-23T11:36:46.495Z,37.00
2019-05-23T11:37:46.641Z,42.79
2019-05-23T11:38:46.823Z,42.31
2019-05-23T11:39:49.468Z,39.97
2019-05-23T11:40:48.221Z,36.71
2019-05-23T11:41:47.366Z,36.22
2019-05-23T11:42:47.523Z,33.61
2019-05-23T11:43:47.678Z,35.01
2019-05-23T11:44:47.849Z,37.87
2019-05-23T11:45:48.031Z,37.87
2019-05-23T11:46:48.222Z,35.34
2019-05-23T11:47:48.381Z,37.02
2019-05-23T11:48:48.564Z,38.39
2019-05-23T11:49:48.769Z,38.53
2019-05-23T11:50:48.891Z,44.24
2019-05-23T11:51:49.044Z,43.85
2019-05-23T11:52:49.195Z,49.03
2019-05-23T11:54:05.852Z,37.68
2019-05-23T11:54:51.520Z,39.29
2019-05-23T11:55:54.054Z,36.43
2019-05-23T11:56:50.768Z,37.09
2019-05-23T11:57:49.924Z,36.27
2019-05-23T11:58:50.156Z,38.57
2019-05-23T11:59:50.323Z,42.17
2019-05-23T12:00:50.512Z,36.88
2019-05-23T12:01:50.639Z,35.19
2019-05-23T12:02:50.828Z,37.24
2019-05-23T12:03:51.023Z,37.19
2019-05-23T12:04:51.224Z,36.26
2019-05-23T12:05:51.325Z,33.98
2019-05-23T12:06:55.840Z,35.69
2019-05-23T12:07:53.688Z,37.07
2019-05-23T12:08:51.879Z,37.17
2019-05-23T12:09:52.060Z,38.44
2019-05-23T12:10:52.274Z,33.04
2019-05-23T12:11:52.489Z,36.55
2019-05-23T12:12:52.575Z,41.31
2019-05-23T12:13:52.767Z,37.82
2019-05-23T12:14:52.950Z,37.21
2019-05-23T12:15:53.122Z,39.23
2019-05-23T12:16:53.303Z,41.34
2019-05-23T12:17:53.402Z,39.23
2019-05-23T12:18:53.594Z,42.19
2019-05-23T12:19:53.806Z,35.14
2019-05-23T12:20:53.996Z,37.01
2019-05-23T12:21:54.201Z,41.33
2019-05-23T12:22:54.461Z,38.53
2019-05-23T12:23:54.584Z,40.17
2019-05-23T12:24:54.786Z,34.31
2019-05-23T12:25:55.991Z,31.81
2019-05-23T12:26:55.206Z,38.19
2019-05-23T12:27:55.312Z,34.51
2019-05-23T12:28:55.494Z,37.56
2019-05-23T12:29:55.678Z,33.29
2019-05-23T12:30:55.830Z,33.21
2019-05-23T12:31:56.026Z,36.31
2019-05-23T12:32:56.224Z,36.69
2019-05-23T12:33:56.292Z,31.63
2019-05-23T12:35:09.736Z,32.17
2019-05-23T12:35:58.580Z,36.71
2019-05-23T12:37:17.276Z,37.46
2019-05-23T12:38:02.149Z,33.98
2019-05-23T12:38:57.007Z,34.74
2019-05-23T12:39:57.165Z,31.57
2019-05-23T12:40:57.405Z,37.03
2019-05-23T12:41:57.566Z,34.69
2019-05-23T12:42:57.723Z,35.60
2019-05-23T12:43:57.894Z,32.17
2019-05-23T12:44:58.070Z,34.83
2019-05-23T12:45:58.272Z,38.42
2019-05-23T12:46:58.406Z,35.04
2019-05-23T12:47:58.594Z,32.43
2019-05-23T12:48:58.790Z,34.68
2019-05-23T12:49:58.950Z,35.06
2019-05-23T12:50:59.134Z,43.71
2019-05-23T12:51:59.313Z,32.10
2019-05-23T12:52:59.467Z,31.63
2019-05-23T12:53:59.681Z,33.33
2019-05-23T12:54:59.870Z,32.18